Time;durP1;ratioP1;P1;durP2;ratioP2;P2;SDS_P1;SDS_P2;PMS_P1;PMS_P2;Temp;Humidity;BMP_temperature;BMP_pressure;BME280_temperature;BME280_humidity;BME280_pressure;Samples;Min_cycle;Max_cycle;Signal;HPM_P1;HPM_P2
2022/05/08 00:02:22;;;;;;;13.93;5.22;;;8.80;99.90;;;;;;5071627;28;20102;-68
2022/05/08 00:04:51;;;;;;;24.58;5.47;;;8.80;99.90;;;;;;5071893;28;20615;-67
2022/05/08 00:07:17;;;;;;;20.35;4.45;;;8.70;99.90;;;;;;5070342;28;20044;-67
2022/05/08 00:09:44;;;;;;;18.35;5.97;;;8.80;99.90;;;;;;5071733;28;20060;-68
2022/05/08 00:12:12;;;;;;;20.98;4.93;;;8.70;99.90;;;;;;5071187;28;20501;-67
2022/05/08 00:14:39;;;;;;;27.05;5.38;;;8.80;99.90;;;;;;5071839;28;20032;-67
2022/05/08 00:17:05;;;;;;;26.98;5.50;;;8.70;99.90;;;;;;5071779;28;20120;-67
2022/05/08 00:19:31;;;;;;;24.45;6.00;;;8.60;99.90;;;;;;5071717;28;20506;-67
2022/05/08 00:21:57;;;;;;;21.48;5.45;;;8.60;99.90;;;;;;5071269;28;20070;-67
2022/05/08 00:24:22;;;;;;;22.33;6.47;;;8.60;99.90;;;;;;5071574;28;20123;-67
2022/05/08 00:26:48;;;;;;;21.52;5.45;;;8.60;99.90;;;;;;5071286;28;20104;-67
2022/05/08 00:29:15;;;;;;;20.92;4.97;;;8.50;99.90;;;;;;5071679;28;20494;-68
2022/05/08 00:31:43;;;;;;;25.38;4.82;;;8.50;99.90;;;;;;5071420;28;20102;-68
2022/05/08 00:34:09;;;;;;;25.30;6.00;;;8.50;99.90;;;;;;5071395;28;20399;-67
2022/05/08 00:36:35;;;;;;;16.92;4.95;;;8.40;99.90;;;;;;5071590;28;20101;-67
2022/05/08 00:39:00;;;;;;;19.85;5.05;;;8.40;99.90;;;;;;5071520;28;20502;-67
2022/05/08 00:41:26;;;;;;;26.50;5.47;;;8.40;99.90;;;;;;5070961;28;20048;-68
2022/05/08 00:43:51;;;;;;;21.65;5.75;;;8.30;99.90;;;;;;5071230;28;20490;-67
2022/05/08 00:46:17;;;;;;;22.45;5.88;;;8.40;99.90;;;;;;5069899;28;20094;-67
2022/05/08 00:48:43;;;;;;;20.10;5.20;;;8.50;99.90;;;;;;5071305;28;20117;-68
2022/05/08 00:51:11;;;;;;;19.48;4.53;;;8.50;99.90;;;;;;5071042;28;20079;-68
2022/05/08 00:53:42;;;;;;;18.05;5.00;;;8.50;99.90;;;;;;5071214;28;20465;-67
2022/05/08 00:56:12;;;;;;;15.52;4.88;;;8.50;99.90;;;;;;5071097;28;20039;-68
2022/05/08 00:58:41;;;;;;;16.63;5.32;;;8.50;99.90;;;;;;5071319;28;20393;-67
2022/05/08 01:01:08;;;;;;;20.80;4.97;;;8.40;99.90;;;;;;5071020;28;20047;-68
2022/05/08 01:03:34;;;;;;;21.48;4.75;;;8.50;99.90;;;;;;5071115;28;20033;-68
2022/05/08 01:06:05;;;;;;;18.73;4.53;;;8.30;99.90;;;;;;5070955;28;20548;-68
2022/05/08 01:08:33;;;;;;;14.98;3.78;;;8.40;99.90;;;;;;5071040;28;20041;-68
2022/05/08 01:11:02;;;;;;;17.95;4.75;;;8.30;99.90;;;;;;5070704;28;20490;-67
2022/05/08 01:13:27;;;;;;;16.55;5.03;;;8.30;99.90;;;;;;5071667;28;20119;-68
2022/05/08 01:15:55;;;;;;;15.57;3.90;;;8.40;99.90;;;;;;5074611;28;20195;-68
2022/05/08 01:18:21;;;;;;;18.55;5.18;;;8.20;99.90;;;;;;5074533;28;20044;-67
2022/05/08 01:20:47;;;;;;;19.15;4.50;;;8.20;99.90;;;;;;5074211;28;20506;-67
2022/05/08 01:23:13;;;;;;;21.83;4.78;;;8.20;99.90;;;;;;5073103;28;20044;-68
2022/05/08 01:25:51;;;;;;;18.27;4.60;;;8.20;99.90;;;;;;5074625;28;20048;-67
2022/05/08 01:28:18;;;;;;;15.82;4.45;;;8.30;99.90;;;;;;5074467;28;20036;-67
2022/05/08 01:30:46;;;;;;;17.42;5.95;;;8.20;99.90;;;;;;5074143;28;20032;-67
2022/05/08 01:33:11;;;;;;;21.13;5.47;;;8.20;99.90;;;;;;5074286;28;20117;-67
2022/05/08 01:35:37;;;;;;;14.90;4.60;;;8.30;99.90;;;;;;5074176;28;20064;-67
2022/05/08 01:38:05;;;;;;;13.90;4.15;;;8.20;99.90;;;;;;5074491;28;20040;-67
2022/05/08 01:40:31;;;;;;;13.13;5.38;;;8.20;99.90;;;;;;5074021;28;20060;-68
2022/05/08 01:42:57;;;;;;;18.52;4.78;;;8.20;99.90;;;;;;5074197;28;20036;-67
2022/05/08 01:45:22;;;;;;;15.18;5.10;;;8.20;99.90;;;;;;5072941;28;20036;-68
2022/05/08 01:50:33;;;;;;;24.13;5.97;;;8.20;99.90;;;;;;5074004;28;20041;-67
2022/05/08 01:52:59;;;;;;;23.13;5.30;;;8.30;99.90;;;;;;5074079;28;20036;-67
2022/05/08 01:55:24;;;;;;;22.30;5.25;;;8.20;99.90;;;;;;5074084;28;20043;-67
2022/05/08 01:57:50;;;;;;;21.05;4.65;;;8.30;99.90;;;;;;5072797;28;20422;-68
2022/05/08 02:00:16;;;;;;;15.23;4.38;;;8.30;99.90;;;;;;5073532;28;20489;-67
2022/05/08 02:02:43;;;;;;;15.15;4.70;;;8.30;99.90;;;;;;5073660;28;20033;-67
2022/05/08 02:05:09;;;;;;;14.45;4.82;;;8.30;99.90;;;;;;5073788;28;20477;-68
2022/05/08 02:07:35;;;;;;;16.15;3.90;;;8.20;99.90;;;;;;5073544;28;20041;-68
2022/05/08 02:10:01;;;;;;;14.23;3.95;;;8.20;99.90;;;;;;5073559;28;20037;-67
2022/05/08 02:12:26;;;;;;;16.60;4.28;;;8.20;99.90;;;;;;5073582;28;20127;-68
2022/05/08 02:14:52;;;;;;;20.70;5.72;;;8.20;99.90;;;;;;5073552;28;20052;-68
2022/05/08 02:17:18;;;;;;;11.88;4.78;;;8.10;99.90;;;;;;5073407;28;20041;-67
2022/05/08 02:19:44;;;;;;;17.20;4.57;;;8.10;99.90;;;;;;5072187;28;20047;-67
2022/05/08 02:22:09;;;;;;;14.75;3.63;;;8.10;99.90;;;;;;5073136;28;20075;-67
2022/05/08 02:24:35;;;;;;;11.02;3.90;;;8.10;99.90;;;;;;5073525;28;20133;-67
2022/05/08 02:27:01;;;;;;;11.57;3.88;;;8.20;99.90;;;;;;5073205;28;20498;-67
2022/05/08 02:29:27;;;;;;;14.38;4.28;;;8.10;99.90;;;;;;5072163;28;20047;-67
2022/05/08 02:31:52;;;;;;;15.95;4.60;;;8.10;99.90;;;;;;5072745;28;20032;-67
2022/05/08 02:34:18;;;;;;;10.82;3.67;;;8.10;99.90;;;;;;5073085;28;20097;-67
2022/05/08 02:36:43;;;;;;;15.25;3.80;;;8.10;99.90;;;;;;5073286;28;20044;-67
2022/05/08 02:39:09;;;;;;;12.70;3.72;;;8.00;99.90;;;;;;5073181;28;20044;-67
2022/05/08 02:41:34;;;;;;;9.38;3.40;;;7.90;99.90;;;;;;5072824;28;20095;-67
2022/05/08 02:44:00;;;;;;;19.27;4.00;;;7.90;99.90;;;;;;5073006;28;20109;-67
2022/05/08 02:46:26;;;;;;;13.07;3.83;;;7.80;99.90;;;;;;5072759;28;20457;-67
2022/05/08 02:48:51;;;;;;;15.35;3.90;;;7.80;99.90;;;;;;5073068;28;20123;-67
2022/05/08 02:51:17;;;;;;;12.52;3.70;;;7.70;99.90;;;;;;5071284;28;20039;-67
2022/05/08 02:53:42;;;;;;;19.95;4.25;;;7.70;99.90;;;;;;5072758;28;20115;-67
2022/05/08 02:58:52;;;;;;;12.70;3.92;;;7.70;99.90;;;;;;5072647;28;20052;-67
2022/05/08 03:01:17;;;;;;;16.65;4.68;;;7.60;99.90;;;;;;5072348;28;20506;-67
2022/05/08 03:03:43;;;;;;;11.55;4.32;;;7.60;99.90;;;;;;5072676;28;20555;-67
2022/05/08 03:06:08;;;;;;;16.83;4.53;;;7.60;99.90;;;;;;5072473;28;20037;-67
2022/05/08 03:08:34;;;;;;;14.63;3.80;;;7.70;99.90;;;;;;5072585;28;20041;-67
2022/05/08 03:13:45;;;;;;;10.07;3.50;;;7.60;99.90;;;;;;5072304;28;20047;-67
2022/05/08 03:16:12;;;;;;;17.27;3.75;;;7.60;99.90;;;;;;5071093;28;20052;-68
2022/05/08 03:18:41;;;;;;;12.68;3.72;;;7.60;99.90;;;;;;5072442;28;20041;-67
2022/05/08 03:21:12;;;;;;;10.60;3.65;;;7.70;99.90;;;;;;5071907;28;20048;-67
2022/05/08 03:23:38;;;;;;;17.63;4.95;;;7.70;99.90;;;;;;5071997;28;20040;-67
2022/05/08 03:26:04;;;;;;;11.18;3.40;;;7.60;99.90;;;;;;5071009;28;20048;-67
2022/05/08 03:28:31;;;;;;;11.38;4.22;;;7.60;99.90;;;;;;5071025;28;20501;-67
2022/05/08 03:30:58;;;;;;;12.20;3.60;;;7.70;99.90;;;;;;5070562;28;20051;-67
2022/05/08 03:33:24;;;;;;;16.42;4.03;;;7.50;99.90;;;;;;5072168;28;20082;-67
2022/05/08 03:35:49;;;;;;;12.73;4.10;;;7.50;99.90;;;;;;5070631;28;20119;-67
2022/05/08 03:38:15;;;;;;;10.88;3.38;;;7.40;99.90;;;;;;5071718;28;20043;-67
2022/05/08 03:40:40;;;;;;;16.92;4.53;;;7.50;99.90;;;;;;5071631;28;20448;-67
2022/05/08 03:43:06;;;;;;;13.75;4.40;;;7.50;99.90;;;;;;5072132;28;20064;-67
2022/05/08 03:45:32;;;;;;;16.88;4.22;;;7.40;99.90;;;;;;5072070;28;20040;-67
2022/05/08 03:47:59;;;;;;;13.73;4.07;;;7.40;99.90;;;;;;5070450;28;20044;-67
2022/05/08 03:50:25;;;;;;;12.68;3.80;;;7.30;99.90;;;;;;5071411;28;20044;-67
2022/05/08 03:52:50;;;;;;;10.27;3.45;;;7.40;99.90;;;;;;5071505;28;20128;-67
2022/05/08 03:55:16;;;;;;;12.60;3.75;;;7.40;99.90;;;;;;5071539;28;20111;-67
2022/05/08 03:57:43;;;;;;;11.77;3.40;;;7.40;99.90;;;;;;5071984;28;20072;-67
2022/05/08 04:00:09;;;;;;;18.02;4.20;;;7.50;99.90;;;;;;5071643;28;20046;-67
2022/05/08 04:02:35;;;;;;;17.90;3.45;;;7.50;99.90;;;;;;5071732;28;20110;-67
2022/05/08 04:05:01;;;;;;;11.00;3.55;;;7.60;99.90;;;;;;5071670;28;20537;-67
2022/05/08 04:07:27;;;;;;;8.45;3.38;;;7.60;99.90;;;;;;5071481;28;20078;-67
2022/05/08 04:09:52;;;;;;;10.73;3.63;;;7.50;99.90;;;;;;5071419;28;20120;-67
2022/05/08 04:12:18;;;;;;;9.98;3.80;;;7.70;99.90;;;;;;5071635;28;20120;-67
2022/05/08 04:14:43;;;;;;;8.48;3.50;;;7.70;99.90;;;;;;5071964;28;20066;-67
2022/05/08 04:17:09;;;;;;;6.47;2.95;;;7.70;99.90;;;;;;5071538;28;20076;-67
2022/05/08 04:19:35;;;;;;;14.30;4.07;;;7.60;99.90;;;;;;5071471;28;20037;-67
2022/05/08 04:24:44;;;;;;;12.73;3.80;;;7.70;99.90;;;;;;5071623;28;20056;-67
2022/05/08 04:27:10;;;;;;;13.75;3.65;;;7.80;99.90;;;;;;5071723;28;20383;-67
2022/05/08 04:29:36;;;;;;;10.13;3.40;;;7.70;99.90;;;;;;5071550;28;20471;-67
2022/05/08 04:32:03;;;;;;;6.28;3.10;;;7.70;99.90;;;;;;5071197;28;20052;-67
2022/05/08 04:34:28;;;;;;;9.13;3.22;;;7.80;99.90;;;;;;5071369;28;20044;-67
2022/05/08 04:36:54;;;;;;;11.75;3.08;;;7.90;99.90;;;;;;5071274;28;20041;-67
2022/05/08 04:39:20;;;;;;;9.90;3.22;;;7.90;99.90;;;;;;5071579;28;20048;-67
2022/05/08 04:41:46;;;;;;;11.43;3.95;;;8.00;99.90;;;;;;5071236;28;20048;-67
2022/05/08 04:44:12;;;;;;;13.35;4.18;;;8.00;99.90;;;;;;5070012;28;20051;-67
2022/05/08 04:46:37;;;;;;;9.57;3.00;;;8.20;99.90;;;;;;5071247;28;20134;-67
2022/05/08 04:49:03;;;;;;;10.45;2.90;;;8.20;99.90;;;;;;5072750;28;20391;-67
2022/05/08 04:51:29;;;;;;;10.93;3.17;;;8.30;99.90;;;;;;5074645;28;20032;-67
2022/05/08 04:53:54;;;;;;;8.82;3.40;;;8.40;99.90;;;;;;5074967;28;20032;-67
2022/05/08 04:56:21;;;;;;;12.13;3.80;;;8.60;99.90;;;;;;5075148;28;20498;-67
2022/05/08 04:58:47;;;;;;;20.25;4.30;;;8.70;99.90;;;;;;5075088;28;20119;-67
2022/05/08 05:01:13;;;;;;;7.78;2.38;;;8.80;99.90;;;;;;5073344;28;20413;-67
2022/05/08 05:03:38;;;;;;;10.40;3.50;;;8.90;99.90;;;;;;5074733;28;20036;-67
2022/05/08 05:06:04;;;;;;;10.50;3.20;;;9.10;99.90;;;;;;5074559;28;20048;-67
2022/05/08 05:08:30;;;;;;;9.27;2.95;;;9.30;99.90;;;;;;5074913;28;20036;-67
2022/05/08 05:10:55;;;;;;;10.48;2.78;;;9.50;99.90;;;;;;5074530;28;20401;-67
2022/05/08 05:13:21;;;;;;;10.45;3.58;;;9.50;99.90;;;;;;5073269;28;20040;-67
2022/05/08 05:15:46;;;;;;;9.05;2.88;;;9.60;99.90;;;;;;5074660;28;20040;-67
2022/05/08 05:18:12;;;;;;;23.27;3.53;;;9.80;99.90;;;;;;5074538;28;20048;-67
2022/05/08 05:20:38;;;;;;;6.45;2.30;;;10.00;99.90;;;;;;5074145;28;20040;-67
2022/05/08 05:23:04;;;;;;;7.28;2.80;;;10.30;99.90;;;;;;5074631;28;20037;-67
2022/05/08 05:25:29;;;;;;;11.82;3.20;;;10.50;99.90;;;;;;5074567;28;20036;-67
2022/05/08 05:27:56;;;;;;;8.95;2.47;;;10.60;99.90;;;;;;5074364;28;20047;-67
2022/05/08 05:30:22;;;;;;;6.80;2.33;;;10.50;99.90;;;;;;5073007;28;20043;-67
2022/05/08 05:32:48;;;;;;;5.70;2.10;;;10.30;99.90;;;;;;5074243;28;20037;-67
2022/05/08 05:35:14;;;;;;;8.20;2.67;;;10.20;99.90;;;;;;5074232;28;20116;-67
2022/05/08 05:37:40;;;;;;;9.57;2.53;;;10.30;99.90;;;;;;5074323;28;20036;-67
2022/05/08 05:40:07;;;;;;;5.63;2.33;;;10.40;99.90;;;;;;5073922;28;20508;-67
2022/05/08 05:42:33;;;;;;;7.85;3.28;;;10.50;99.90;;;;;;5074009;28;20044;-67
2022/05/08 05:44:58;;;;;;;10.05;3.30;;;10.80;99.90;;;;;;5074229;28;20037;-67
2022/05/08 05:50:09;;;;;;;9.30;3.78;;;11.60;99.30;;;;;;5073988;28;20076;-67
2022/05/08 05:52:35;;;;;;;8.55;1.98;;;11.80;98.50;;;;;;5073938;28;20387;-67
2022/05/08 05:55:02;;;;;;;5.43;1.75;;;12.00;96.70;;;;;;5074162;28;20037;-68
2022/05/08 05:57:28;;;;;;;9.88;2.42;;;12.10;96.50;;;;;;5073990;28;20119;-67
2022/05/08 05:59:54;;;;;;;9.73;2.78;;;12.50;95.60;;;;;;5073444;28;20562;-67
2022/05/08 06:02:19;;;;;;;6.55;2.00;;;12.60;93.70;;;;;;5073530;28;20429;-67
2022/05/08 06:04:45;;;;;;;8.32;2.03;;;12.90;93.90;;;;;;5073978;28;20044;-67
2022/05/08 06:07:10;;;;;;;14.75;2.10;;;12.40;92.10;;;;;;5073602;28;20519;-67
2022/05/08 06:09:36;;;;;;;8.07;1.98;;;12.30;91.70;;;;;;5073792;28;20086;-67
2022/05/08 06:12:01;;;;;;;5.15;1.70;;;12.70;91.60;;;;;;5073333;28;20033;-67
2022/05/08 06:14:27;;;;;;;6.97;1.50;;;13.00;89.80;;;;;;5073631;28;20546;-67
2022/05/08 06:16:54;;;;;;;6.80;1.75;;;13.00;89.20;;;;;;5073544;28;20045;-67
2022/05/08 06:19:19;;;;;;;7.53;1.77;;;12.80;85.30;;;;;;5073681;28;20047;-68
2022/05/08 06:21:47;;;;;;;8.10;2.33;;;12.80;85.60;;;;;;5073318;28;20036;-67
2022/05/08 06:24:13;;;;;;;9.65;1.73;;;13.00;85.90;;;;;;5073370;28;20037;-67
2022/05/08 06:26:38;;;;;;;13.45;1.90;;;12.80;85.30;;;;;;5073233;28;20051;-68
2022/05/08 06:29:04;;;;;;;6.97;2.15;;;12.90;86.10;;;;;;5073282;28;20036;-68
2022/05/08 06:31:30;;;;;;;7.90;2.00;;;12.40;85.00;;;;;;5072637;28;20042;-68
2022/05/08 06:33:56;;;;;;;7.75;1.70;;;12.00;88.20;;;;;;5072075;28;20032;-67
2022/05/08 06:36:22;;;;;;;7.30;2.20;;;11.90;90.20;;;;;;5073081;28;20048;-68
2022/05/08 06:38:48;;;;;;;10.55;2.17;;;11.40;90.90;;;;;;5073325;28;20032;-67
2022/05/08 06:41:14;;;;;;;7.97;2.15;;;11.20;92.70;;;;;;5072825;28;20452;-67
2022/05/08 06:43:40;;;;;;;8.07;2.00;;;11.20;94.30;;;;;;5072938;28;20116;-67
2022/05/08 06:46:07;;;;;;;11.80;2.47;;;11.30;94.50;;;;;;5072777;28;20036;-67
2022/05/08 06:48:33;;;;;;;6.70;2.00;;;11.20;94.60;;;;;;5072778;28;20505;-67
2022/05/08 06:50:58;;;;;;;9.40;2.15;;;11.20;95.40;;;;;;5072643;28;20036;-68
2022/05/08 06:53:26;;;;;;;6.15;1.70;;;11.20;95.90;;;;;;5071661;28;20079;-67
2022/05/08 06:55:52;;;;;;;9.15;1.90;;;11.20;95.90;;;;;;5072702;28;20045;-67
2022/05/08 06:58:18;;;;;;;3.80;1.70;;;11.50;96.40;;;;;;5072540;28;20102;-67
2022/05/08 07:03:28;;;;;;;17.23;2.63;;;11.50;97.20;;;;;;5092482;28;20047;-67
2022/05/08 07:05:54;;;;;;;11.43;2.15;;;11.40;95.90;;;;;;5092592;28;20414;-68
2022/05/08 07:08:19;;;;;;;14.25;2.60;;;11.30;95.10;;;;;;5093112;28;20092;-67
2022/05/08 07:10:45;;;;;;;12.95;2.58;;;11.30;95.10;;;;;;5091046;28;20040;-68
2022/05/08 07:13:10;;;;;;;9.93;2.58;;;11.40;96.20;;;;;;5092101;28;20165;-67
2022/05/08 07:15:36;;;;;;;12.07;2.55;;;11.20;94.80;;;;;;5092626;28;20032;-67
2022/05/08 07:18:02;;;;;;;9.45;2.58;;;11.00;93.80;;;;;;5092774;28;20048;-68
2022/05/08 07:20:27;;;;;;;8.82;2.67;;;11.00;93.90;;;;;;5092314;28;20446;-70
2022/05/08 07:22:53;;;;;;;10.20;2.05;;;11.50;94.60;;;;;;5092512;28;20394;-68
2022/05/08 07:25:19;;;;;;;9.55;2.75;;;11.20;93.30;;;;;;5092475;28;20067;-68
2022/05/08 07:27:45;;;;;;;9.48;2.55;;;11.40;93.30;;;;;;5092274;28;20603;-67
2022/05/08 07:30:11;;;;;;;14.02;2.53;;;11.60;92.50;;;;;;5091009;28;20067;-67
2022/05/08 07:32:36;;;;;;;9.68;2.25;;;12.00;87.60;;;;;;5092405;28;20533;-67
2022/05/08 07:37:47;;;;;;;11.77;1.92;;;12.70;81.80;;;;;;5081143;28;20048;-68
2022/05/08 07:40:13;;;;;;;9.40;2.20;;;12.50;82.10;;;;;;5080091;28;20033;-67
2022/05/08 07:42:39;;;;;;;10.55;2.65;;;12.80;80.20;;;;;;5086484;28;20044;-67
2022/05/08 07:45:05;;;;;;;7.35;2.30;;;12.70;78.70;;;;;;5088843;28;20107;-68
2022/05/08 07:47:31;;;;;;;9.88;2.08;;;13.00;77.00;;;;;;5080365;28;20080;-68
2022/05/08 07:49:56;;;;;;;8.30;2.00;;;13.30;74.70;;;;;;5083094;28;20445;-67
2022/05/08 07:52:22;;;;;;;8.00;2.08;;;12.80;76.20;;;;;;5091957;28;20113;-67
2022/05/08 07:54:48;;;;;;;8.32;2.20;;;12.60;75.60;;;;;;5091830;28;20046;-67
2022/05/08 07:57:13;;;;;;;11.77;1.92;;;12.70;77.50;;;;;;5092099;28;20040;-67
2022/05/08 07:59:42;;;;;;;8.30;1.92;;;12.50;77.30;;;;;;5089611;28;20389;-67
2022/05/08 08:02:08;;;;;;;10.25;2.20;;;12.40;77.80;;;;;;5091399;28;20039;-67
2022/05/08 08:04:36;;;;;;;8.15;2.67;;;13.00;74.70;;;;;;5083911;28;20454;-67
2022/05/08 08:07:03;;;;;;;8.63;2.10;;;12.90;74.40;;;;;;5071251;28;20086;-67
2022/05/08 08:09:29;;;;;;;10.10;2.28;;;12.50;74.40;;;;;;5071197;28;20036;-67
2022/05/08 08:11:55;;;;;;;12.57;2.20;;;12.90;75.40;;;;;;5071273;28;20509;-67
2022/05/08 08:14:21;;;;;;;8.00;2.20;;;12.70;76.20;;;;;;5071553;28;20406;-67
2022/05/08 08:16:47;;;;;;;8.10;2.22;;;12.90;76.40;;;;;;5091289;28;20036;-67
2022/05/08 08:19:12;;;;;;;9.30;3.13;;;13.20;75.30;;;;;;5091431;28;20508;-67
2022/05/08 08:21:38;;;;;;;7.38;2.00;;;13.30;73.90;;;;;;5091203;28;20043;-67
2022/05/08 08:24:04;;;;;;;6.80;1.92;;;13.50;74.70;;;;;;5094724;28;20047;-67
2022/05/08 08:26:30;;;;;;;8.15;2.03;;;14.00;71.20;;;;;;5095650;28;20036;-67
2022/05/08 08:28:55;;;;;;;7.60;2.13;;;14.30;70.10;;;;;;5088156;28;20058;-67
2022/05/08 08:31:21;;;;;;;10.60;2.58;;;13.80;67.50;;;;;;5074042;28;20040;-67
2022/05/08 08:33:48;;;;;;;12.63;2.72;;;14.10;67.80;;;;;;5080176;28;20036;-67
2022/05/08 08:36:14;;;;;;;9.18;2.13;;;14.10;66.00;;;;;;5095597;28;20047;-67
2022/05/08 08:38:39;;;;;;;8.43;2.20;;;14.40;65.30;;;;;;5095189;28;20394;-67
2022/05/08 08:41:07;;;;;;;7.50;2.13;;;14.60;63.00;;;;;;5095339;28;20043;-66
2022/05/08 08:49:16;;;;;;;9.55;2.60;;;15.50;61.30;;;;;;5074802;28;20036;-67
2022/05/08 08:51:42;;;;;;;8.32;1.90;;;15.20;59.40;;;;;;5074884;28;20040;-67
2022/05/08 08:54:08;;;;;;;5.03;1.83;;;15.40;59.30;;;;;;5074678;28;20513;-67
2022/05/08 08:56:33;;;;;;;9.13;2.88;;;15.40;61.50;;;;;;5074956;28;20119;-67
2022/05/08 08:58:59;;;;;;;11.43;2.45;;;15.30;60.40;;;;;;5074658;28;20395;-66
2022/05/08 09:01:24;;;;;;;7.90;2.20;;;15.60;59.60;;;;;;5074409;28;20036;-67
2022/05/08 09:03:56;;;;;;;8.88;2.83;;;15.60;58.90;;;;;;5077207;28;20044;-67
2022/05/08 09:06:21;;;;;;;10.80;2.83;;;15.60;57.50;;;;;;5080905;28;20114;-68
2022/05/08 09:08:47;;;;;;;10.73;2.20;;;15.70;55.70;;;;;;5090374;28;20036;-67
2022/05/08 09:11:31;;;;;;;13.13;2.90;;;15.50;57.20;;;;;;5076217;28;20031;-67
2022/05/08 09:13:58;;;;;;;9.68;2.35;;;15.60;56.40;;;;;;5073151;28;20036;-67
2022/05/08 09:16:23;;;;;;;6.90;1.98;;;15.70;57.10;;;;;;5074650;28;20051;-66
2022/05/08 09:18:49;;;;;;;9.82;2.20;;;15.90;56.50;;;;;;5074121;28;20041;-67
2022/05/08 09:24:10;;;;;;;7.55;2.15;;;15.40;55.50;;;;;;5074485;28;20041;-68
2022/05/08 09:26:36;;;;;;;10.27;2.53;;;15.70;56.80;;;;;;5093166;28;20036;-67
2022/05/08 09:29:03;;;;;;;9.40;2.65;;;15.70;55.30;;;;;;5094689;28;20400;-67
2022/05/08 09:31:41;;;;;;;15.00;2.53;;;15.20;56.50;;;;;;5093721;28;20107;-67
2022/05/08 09:34:07;;;;;;;8.90;2.53;;;15.30;58.00;;;;;;5087335;28;20040;-68
2022/05/08 09:36:34;;;;;;;11.00;2.40;;;15.50;56.90;;;;;;5076311;28;20051;-67
2022/05/08 09:39:01;;;;;;;8.98;2.17;;;15.20;56.20;;;;;;5094021;28;20038;-67
2022/05/08 09:41:31;;;;;;;6.15;1.90;;;14.70;57.50;;;;;;5094053;28;20386;-67
2022/05/08 09:44:10;;;;;;;11.73;3.22;;;15.30;57.50;;;;;;5094148;28;20050;-66
2022/05/08 09:46:36;;;;;;;11.30;2.58;;;15.20;57.60;;;;;;5094115;28;20040;-66
2022/05/08 09:49:02;;;;;;;6.80;2.35;;;15.40;58.20;;;;;;5074732;28;20044;-67
2022/05/08 09:51:32;;;;;;;9.35;2.63;;;15.30;59.30;;;;;;5073279;28;20033;-67
2022/05/08 09:53:58;;;;;;;11.23;2.47;;;14.90;57.20;;;;;;5074156;28;20032;-67
2022/05/08 09:56:25;;;;;;;7.82;1.80;;;14.70;57.60;;;;;;5074003;28;20032;-67
2022/05/08 09:58:50;;;;;;;14.02;3.25;;;15.10;59.00;;;;;;5072439;28;20048;-67
2022/05/08 10:01:16;;;;;;;10.80;2.67;;;15.10;58.50;;;;;;5073296;28;20036;-67
2022/05/08 10:03:43;;;;;;;13.70;2.28;;;14.80;58.10;;;;;;5072135;28;20102;-67
2022/05/08 10:06:09;;;;;;;7.78;2.78;;;14.90;58.50;;;;;;5073971;28;20089;-67
2022/05/08 10:08:37;;;;;;;10.32;2.40;;;14.90;60.00;;;;;;5090684;28;20032;-67
2022/05/08 10:13:54;;;;;;;8.50;2.40;;;14.80;58.60;;;;;;5081687;28;20397;-67
2022/05/08 10:16:49;;;;;;;8.50;2.53;;;15.00;58.10;;;;;;5073232;28;20029;-66
2022/05/08 10:19:23;;;;;;;8.00;2.25;;;14.70;56.80;;;;;;5073475;28;20040;-66
2022/05/08 10:22:02;;;;;;;8.05;2.42;;;14.80;57.50;;;;;;5083039;28;20028;-66
2022/05/08 10:24:28;;;;;;;11.15;2.50;;;14.90;58.60;;;;;;5093413;28;20036;-67
2022/05/08 10:27:14;;;;;;;10.02;3.20;;;14.60;58.60;;;;;;5087695;28;20086;-67
2022/05/08 10:29:49;;;;;;;6.85;2.55;;;14.70;59.00;;;;;;5087223;28;20050;-67
2022/05/08 10:32:32;;;;;;;13.02;3.38;;;14.80;57.40;;;;;;5079940;28;20119;-67
2022/05/08 10:35:18;;;;;;;13.18;2.22;;;14.80;59.80;;;;;;5093068;28;20032;-67
2022/05/08 10:37:51;;;;;;;8.25;2.50;;;14.60;59.00;;;;;;5092936;28;20047;-67
2022/05/08 10:40:22;;;;;;;6.45;2.22;;;14.40;60.10;;;;;;5074699;28;20410;-67
2022/05/08 10:42:49;;;;;;;9.93;2.35;;;14.40;59.70;;;;;;5085541;28;20054;-67
2022/05/08 10:45:30;;;;;;;11.57;2.90;;;14.20;59.90;;;;;;5092705;28;20062;-67
2022/05/08 10:48:01;;;;;;;6.95;2.60;;;14.10;60.00;;;;;;5081599;28;20040;-66
2022/05/08 10:50:26;;;;;;;8.73;2.25;;;14.00;58.70;;;;;;5072305;28;20029;-66
2022/05/08 10:52:52;;;;;;;8.38;2.53;;;14.10;59.10;;;;;;5072661;28;20043;-67
2022/05/08 10:55:18;;;;;;;10.05;2.22;;;13.90;59.30;;;;;;5072397;28;20037;-66
2022/05/08 10:57:46;;;;;;;11.88;2.13;;;13.90;59.00;;;;;;5072476;28;20040;-67
2022/05/08 11:00:33;;;;;;;11.18;1.85;;;14.10;59.00;;;;;;5072035;28;20048;-67
2022/05/08 11:03:00;;;;;;;9.10;2.45;;;14.20;61.10;;;;;;5076501;28;20044;-67
2022/05/08 11:05:31;;;;;;;10.00;2.55;;;14.30;60.10;;;;;;5079137;28;20634;-68
2022/05/08 11:08:08;;;;;;;7.00;2.22;;;14.50;58.50;;;;;;5079590;28;20078;-67
2022/05/08 11:10:39;;;;;;;8.95;2.67;;;14.50;57.20;;;;;;5071338;28;20037;-67
2022/05/08 11:13:12;;;;;;;6.35;2.15;;;14.70;58.10;;;;;;5071025;28;20036;-67
2022/05/08 11:15:45;;;;;;;;;;;14.80;56.00;;;;;;5072082;28;20048;-66
2022/05/08 11:18:19;;;;;;;12.40;2.38;;;14.40;56.40;;;;;;5071774;28;19924;-67
2022/05/08 11:21:02;;;;;;;7.85;2.45;;;14.60;56.50;;;;;;5071087;28;20374;-67
2022/05/08 11:23:30;;;;;;;10.95;2.75;;;14.60;57.60;;;;;;5072521;28;20040;-67
2022/05/08 11:26:06;;;;;;;8.32;2.35;;;14.50;57.70;;;;;;5074643;28;20040;-67
2022/05/08 11:28:35;;;;;;;13.00;2.80;;;14.60;58.60;;;;;;5092257;28;20040;-67
2022/05/08 11:31:12;;;;;;;10.27;2.10;;;14.30;58.10;;;;;;5091860;28;20428;-67
2022/05/08 11:36:28;;;;;;;11.18;2.50;;;14.30;57.10;;;;;;5072116;28;20040;-68
2022/05/08 11:38:58;;;;;;;5.53;2.10;;;14.40;57.90;;;;;;5072102;28;20036;-67
2022/05/08 11:41:35;;;;;;;10.30;2.53;;;14.60;58.20;;;;;;5071706;28;20066;-68
2022/05/08 11:44:25;;;;;;;8.43;3.17;;;14.50;57.20;;;;;;5081052;28;20032;-67
2022/05/08 11:46:55;;;;;;;10.68;2.35;;;14.30;57.60;;;;;;5082185;28;20044;-68
2022/05/08 11:49:29;;;;;;;7.85;2.08;;;14.40;58.10;;;;;;5074440;28;20045;-67
2022/05/08 11:52:02;;;;;;;8.48;2.78;;;14.20;59.10;;;;;;5076661;28;20040;-68
2022/05/08 11:54:30;;;;;;;8.32;2.33;;;14.50;59.20;;;;;;5083074;28;20119;-68
2022/05/08 11:57:17;;;;;;;9.00;2.58;;;14.50;56.30;;;;;;5080607;28;20032;-67
2022/05/08 11:59:51;;;;;;;9.55;2.00;;;14.40;55.60;;;;;;5081698;28;20039;-67
2022/05/08 12:02:18;;;;;;;9.45;2.10;;;14.30;56.70;;;;;;5087806;28;20757;-68
2022/05/08 12:04:54;;;;;;;11.65;2.30;;;14.40;57.10;;;;;;5091845;28;20085;-67
2022/05/08 12:07:20;;;;;;;6.55;2.15;;;14.50;57.50;;;;;;5091612;28;20102;-68
2022/05/08 12:09:49;;;;;;;7.03;2.40;;;14.70;57.20;;;;;;5091728;28;20048;-68
2022/05/08 12:12:31;;;;;;;6.95;2.22;;;14.60;57.00;;;;;;5091594;28;20036;-67
2022/05/08 12:15:04;;;;;;;8.93;2.10;;;14.40;57.60;;;;;;5091744;28;20085;-68
2022/05/08 12:17:50;;;;;;;12.50;2.83;;;14.50;57.70;;;;;;5091901;28;20093;-67
2022/05/08 12:20:19;;;;;;;6.75;2.08;;;14.40;56.80;;;;;;5091588;28;20119;-67
2022/05/08 12:23:04;;;;;;;12.50;2.05;;;14.60;58.50;;;;;;5091637;28;20402;-68
2022/05/08 12:25:38;;;;;;;9.07;2.67;;;14.70;58.50;;;;;;5091692;28;20058;-68
2022/05/08 12:28:04;;;;;;;5.88;1.90;;;14.30;56.80;;;;;;5091827;28;20093;-67
2022/05/08 12:30:30;;;;;;;6.20;2.20;;;14.40;58.50;;;;;;5091575;28;20052;-67
2022/05/08 12:32:55;;;;;;;8.65;2.20;;;14.70;57.80;;;;;;5091674;28;20040;-68
2022/05/08 12:35:21;;;;;;;8.63;2.20;;;14.70;55.40;;;;;;5091690;28;20051;-68
2022/05/08 12:37:48;;;;;;;9.45;2.67;;;14.70;55.50;;;;;;5091489;28;20051;-68
2022/05/08 12:40:15;;;;;;;9.32;2.60;;;14.70;54.00;;;;;;5091050;28;20039;-67
2022/05/08 12:42:41;;;;;;;7.43;1.88;;;14.70;55.30;;;;;;5091634;28;20047;-68
2022/05/08 12:45:07;;;;;;;7.95;2.03;;;14.80;57.50;;;;;;5091636;28;20040;-68
2022/05/08 12:47:33;;;;;;;7.20;2.33;;;14.50;55.00;;;;;;5091448;28;20048;-68
2022/05/08 12:49:58;;;;;;;7.50;2.30;;;14.50;54.30;;;;;;5091205;28;20596;-67
2022/05/08 12:52:24;;;;;;;11.80;2.90;;;14.70;55.50;;;;;;5091375;28;20051;-68
2022/05/08 12:54:49;;;;;;;6.38;2.17;;;14.90;55.70;;;;;;5091251;28;20031;-68
2022/05/08 12:59:42;;;;;;;8.80;2.20;;;14.90;54.10;;;;;;5091605;28;20123;-68
2022/05/08 13:00:03;;;;;;;11.52;2.28;;;15.00;54.10;;;;;;5090912;28;20052;-68
2022/05/08 13:02:29;;;;;;;10.80;2.17;;;14.80;53.70;;;;;;5089972;28;20065;-68
2022/05/08 13:04:55;;;;;;;9.93;2.35;;;14.90;54.30;;;;;;5090006;28;20035;-68
2022/05/08 13:07:20;;;;;;;9.57;2.42;;;14.80;55.20;;;;;;5091090;28;20047;-68
2022/05/08 13:09:46;;;;;;;11.55;3.13;;;14.50;55.10;;;;;;5092436;28;20477;-68
2022/05/08 13:12:12;;;;;;;7.78;1.83;;;14.90;56.00;;;;;;5094760;28;20117;-68
2022/05/08 13:14:39;;;;;;;7.13;2.35;;;14.90;54.40;;;;;;5095140;28;20482;-68
2022/05/08 13:17:05;;;;;;;9.82;2.40;;;14.80;53.30;;;;;;5095027;28;20047;-68
2022/05/08 13:19:33;;;;;;;5.93;2.13;;;14.90;55.00;;;;;;5094887;28;20040;-68
2022/05/08 13:22:08;;;;;;;11.07;2.90;;;15.20;55.40;;;;;;5094262;28;20513;-68